Terminal Aerodrome Forecast
Issued by NWS Paducah, KY

Home | Current Version | Previous Version | Text Only | Print | Product List | Glossary On
Versions: 1 2 3 4 5 6 7 8 9 10 11 12 13 14 15 16 17 18 19 20 21
000
FTUS43 KPAH 271252 AAA
TAFEVV
TAF AMD
KEVV 271252Z 2713/2812 VRB03KT 5SM BR SCT005 BKN012
      TEMPO 2713/2715 SCT015 BKN100
     FM271500 24005KT P6SM SCT100
     FM271800 23005KT P6SM VCTS SCT035CB BKN100
     FM280000 00000KT P6SM SCT250
      TEMPO 2808/2812 4SM BR=

USA.gov is the U.S. government's official web portal to all federal, state and local government web resources and services.